Terminal Aerodrome Forecast
Issued by NWS Tampa Bay Area, FL

Home | Current Version | Previous Version | Text Only | Print | Product List | Glossary On
Versions: 1 2 3 4 5 6 7 8 9 10 11 12 13 14 15 16 17 18 19 20 21 22 23 24 25
421
FTUS42 KTBW 271506 AAA
TAFTPA
TAF AMD
KTPA 271506Z 2715/2812 14006KT P6SM SCT250
     FM271700 23006KT P6SM FEW040 SCT250
     FM272000 27008KT P6SM SCT050 SCT250
     FM280000 30005KT P6SM SCT060
     FM280300 VRB03KT P6SM FEW060=

USA.gov is the U.S. government's official web portal to all federal, state and local government web resources and services.